sensor_id;sensor_type;location;lat;lon;timestamp;pressure;altitude;pressure_sealevel;temperature;humidity
34921;BME280;21128;50.016;20.002;2023-02-28T00:01:22;100106.05;;;-0.73;81.55
34921;BME280;21128;50.016;20.002;2023-02-28T00:03:49;100108.63;;;-0.73;81.49
34921;BME280;21128;50.016;20.002;2023-02-28T00:06:16;100105.15;;;-0.72;80.98
34921;BME280;21128;50.016;20.002;2023-02-28T00:08:44;100111.16;;;-0.72;82.60
34921;BME280;21128;50.016;20.002;2023-02-28T00:11:13;100107.73;;;-0.72;81.14
34921;BME280;21128;50.016;20.002;2023-02-28T00:13:42;100112.94;;;-0.74;82.22
34921;BME280;21128;50.016;20.002;2023-02-28T00:16:13;100111.27;;;-0.76;81.64
34921;BME280;21128;50.016;20.002;2023-02-28T00:18:41;100113.94;;;-0.79;82.23
34921;BME280;21128;50.016;20.002;2023-02-28T00:21:08;100108.87;;;-0.82;81.99
34921;BME280;21128;50.016;20.002;2023-02-28T00:23:36;100120.08;;;-0.83;81.34
34921;BME280;21128;50.016;20.002;2023-02-28T00:26:03;100120.98;;;-0.86;82.27
34921;BME280;21128;50.016;20.002;2023-02-28T00:28:31;100118.41;;;-0.86;81.78
34921;BME280;21128;50.016;20.002;2023-02-28T00:30:58;100114.13;;;-0.87;81.44
34921;BME280;21128;50.016;20.002;2023-02-28T00:33:27;100117.55;;;-0.87;81.59
34921;BME280;21128;50.016;20.002;2023-02-28T00:36:06;100125.23;;;-0.83;82.55
34921;BME280;21128;50.016;20.002;2023-02-28T00:38:33;100118.34;;;-0.83;81.97
34921;BME280;21128;50.016;20.002;2023-02-28T00:41:01;100115.78;;;-0.85;82.06
34921;BME280;21128;50.016;20.002;2023-02-28T00:43:35;100110.62;;;-0.85;82.57
34921;BME280;21128;50.016;20.002;2023-02-28T00:46:06;100113.18;;;-0.83;82.36
34921;BME280;21128;50.016;20.002;2023-02-28T00:48:33;100117.50;;;-0.83;81.86
34921;BME280;21128;50.016;20.002;2023-02-28T00:51:03;100117.50;;;-0.83;82.67
34921;BME280;21128;50.016;20.002;2023-02-28T00:53:31;100114.13;;;-0.87;81.75
34921;BME280;21128;50.016;20.002;2023-02-28T00:55:59;100109.91;;;-0.90;81.55
34921;BME280;21128;50.016;20.002;2023-02-28T00:58:27;100111.64;;;-0.90;81.59
34921;BME280;21128;50.016;20.002;2023-02-28T01:00:54;100109.95;;;-0.91;81.90
34921;BME280;21128;50.016;20.002;2023-02-28T01:03:25;100119.42;;;-0.92;82.61
34921;BME280;21128;50.016;20.002;2023-02-28T01:05:52;100111.70;;;-0.93;82.82
34921;BME280;21128;50.016;20.002;2023-02-28T01:08:22;100111.74;;;-0.95;81.94
34921;BME280;21128;50.016;20.002;2023-02-28T01:10:49;100114.41;;;-0.98;81.48
34921;BME280;21128;50.016;20.002;2023-02-28T01:13:16;100117.88;;;-0.99;82.68
34921;BME280;21128;50.016;20.002;2023-02-28T01:15:49;100121.36;;;-1.01;82.54
34921;BME280;21128;50.016;20.002;2023-02-28T01:18:18;100118.03;;;-1.05;81.79
34921;BME280;21128;50.016;20.002;2023-02-28T01:20:45;100111.17;;;-1.06;81.71
34921;BME280;21128;50.016;20.002;2023-02-28T01:23:12;100123.28;;;-1.08;82.29
34921;BME280;21128;50.016;20.002;2023-02-28T01:25:40;100114.70;;;-1.10;82.42
34921;BME280;21128;50.016;20.002;2023-02-28T01:28:07;100113.86;;;-1.10;81.68
34921;BME280;21128;50.016;20.002;2023-02-28T01:30:34;100113.86;;;-1.10;81.70
34921;BME280;21128;50.016;20.002;2023-02-28T01:33:01;100114.70;;;-1.10;82.78
34921;BME280;21128;50.016;20.002;2023-02-28T01:35:32;100123.33;;;-1.11;81.56
34921;BME280;21128;50.016;20.002;2023-02-28T01:38:00;100119.86;;;-1.10;82.18
34921;BME280;21128;50.016;20.002;2023-02-28T01:40:27;100119.95;;;-1.13;82.90
34921;BME280;21128;50.016;20.002;2023-02-28T01:42:57;100115.67;;;-1.14;82.63
34921;BME280;21128;50.016;20.002;2023-02-28T01:45:31;100120.92;;;-1.17;81.78
34921;BME280;21128;50.016;20.002;2023-02-28T01:48:02;100108.97;;;-1.21;82.20
34921;BME280;21128;50.016;20.002;2023-02-28T01:50:34;100117.59;;;-1.22;82.71
34921;BME280;21128;50.016;20.002;2023-02-28T01:53:07;100109.91;;;-1.24;82.30
34921;BME280;21128;50.016;20.002;2023-02-28T01:55:37;100103.94;;;-1.26;82.37
34921;BME280;21128;50.016;20.002;2023-02-28T01:58:08;100112.53;;;-1.27;83.25
34921;BME280;21128;50.016;20.002;2023-02-28T02:00:36;100110.00;;;-1.28;82.40
34921;BME280;21128;50.016;20.002;2023-02-28T02:03:09;100107.50;;;-1.31;83.28
34921;BME280;21128;50.016;20.002;2023-02-28T02:05:39;100111.86;;;-1.33;82.63
34921;BME280;21128;50.016;20.002;2023-02-28T02:08:12;100105.06;;;-1.37;83.93
34921;BME280;21128;50.016;20.002;2023-02-28T02:10:41;100108.63;;;-1.43;83.70
34921;BME280;21128;50.016;20.002;2023-02-28T02:38:13;100105.13;;;-1.78;84.86
34921;BME280;21128;50.016;20.002;2023-02-28T02:40:57;100089.70;;;-1.79;84.90
34921;BME280;21128;50.016;20.002;2023-02-28T02:43:36;100090.59;;;-1.80;84.72
34921;BME280;21128;50.016;20.002;2023-02-28T02:46:12;100088.98;;;-1.84;85.42
34921;BME280;21128;50.016;20.002;2023-02-28T02:48:43;100085.64;;;-1.89;85.66
34921;BME280;21128;50.016;20.002;2023-02-28T02:51:14;100086.53;;;-1.90;85.51
34921;BME280;21128;50.016;20.002;2023-02-28T02:53:52;100089.95;;;-1.90;85.69
34921;BME280;21128;50.016;20.002;2023-02-28T02:56:25;100087.38;;;-1.90;85.76
34921;BME280;21128;50.016;20.002;2023-02-28T02:58:54;100088.30;;;-1.92;86.14
34921;BME280;21128;50.016;20.002;2023-02-28T03:01:24;100082.31;;;-1.94;86.48
34921;BME280;21128;50.016;20.002;2023-02-28T03:04:10;100080.62;;;-1.95;86.54
34921;BME280;21128;50.016;20.002;2023-02-28T03:06:38;100085.00;;;-1.99;86.42
34921;BME280;21128;50.016;20.002;2023-02-28T03:09:08;100082.39;;;-1.97;86.53
34921;BME280;21128;50.016;20.002;2023-02-28T03:11:37;100087.54;;;-1.97;86.83
34921;BME280;21128;50.016;20.002;2023-02-28T03:16:54;100080.82;;;-2.05;87.24
34921;BME280;21128;50.016;20.002;2023-02-28T03:24:47;100097.20;;;-2.07;87.34
34921;BME280;21128;50.016;20.002;2023-02-28T03:30:25;100106.70;;;-2.11;87.84
34921;BME280;21128;50.016;20.002;2023-02-28T03:33:05;100108.47;;;-2.13;88.43
34921;BME280;21128;50.016;20.002;2023-02-28T03:35:43;100100.84;;;-2.17;87.93
34921;BME280;21128;50.016;20.002;2023-02-28T03:38:18;100100.00;;;-2.18;88.07
34921;BME280;21128;50.016;20.002;2023-02-28T03:41:01;100104.39;;;-2.23;88.46
34921;BME280;21128;50.016;20.002;2023-02-28T03:43:35;100104.47;;;-2.28;88.43
34921;BME280;21128;50.016;20.002;2023-02-28T03:46:08;100108.84;;;-2.31;88.35
34921;BME280;21128;50.016;20.002;2023-02-28T03:48:51;100111.49;;;-2.34;88.36
34921;BME280;21128;50.016;20.002;2023-02-28T03:51:22;100110.65;;;-2.36;88.52
34921;BME280;21128;50.016;20.002;2023-02-28T03:53:54;100113.30;;;-2.39;88.79
34921;BME280;21128;50.016;20.002;2023-02-28T03:56:34;100110.76;;;-2.41;88.68
34921;BME280;21128;50.016;20.002;2023-02-28T03:59:18;100112.52;;;-2.44;88.85
34921;BME280;21128;50.016;20.002;2023-02-28T04:01:48;100122.89;;;-2.47;88.83
34921;BME280;21128;50.016;20.002;2023-02-28T04:04:16;100116.97;;;-2.52;89.02
34921;BME280;21128;50.016;20.002;2023-02-28T04:06:44;100114.47;;;-2.56;88.98
34921;BME280;21128;50.016;20.002;2023-02-28T04:09:13;100115.38;;;-2.58;89.09
34921;BME280;21128;50.016;20.002;2023-02-28T04:11:46;100123.14;;;-2.60;89.43
34921;BME280;21128;50.016;20.002;2023-02-28T04:14:16;100127.44;;;-2.62;89.76
34921;BME280;21128;50.016;20.002;2023-02-28T04:16:43;100126.62;;;-2.64;89.79
34921;BME280;21128;50.016;20.002;2023-02-28T04:19:11;100133.53;;;-2.66;89.92
34921;BME280;21128;50.016;20.002;2023-02-28T04:21:42;100128.39;;;-2.66;90.12
34921;BME280;21128;50.016;20.002;2023-02-28T04:24:12;100125.84;;;-2.67;90.03
34921;BME280;21128;50.016;20.002;2023-02-28T04:26:43;100125.00;;;-2.69;90.21
34921;BME280;21128;50.016;20.002;2023-02-28T04:29:13;100131.03;;;-2.70;89.95
34921;BME280;21128;50.016;20.002;2023-02-28T04:31:40;100130.19;;;-2.71;90.38
34921;BME280;21128;50.016;20.002;2023-02-28T04:34:07;100131.09;;;-2.73;90.11
34921;BME280;21128;50.016;20.002;2023-02-28T04:36:34;100133.70;;;-2.75;90.08
34921;BME280;21128;50.016;20.002;2023-02-28T04:39:02;100135.46;;;-2.77;90.43
34921;BME280;21128;50.016;20.002;2023-02-28T04:41:30;100133.73;;;-2.76;90.72
34921;BME280;21128;50.016;20.002;2023-02-28T04:43:57;100139.77;;;-2.77;90.50
34921;BME280;21128;50.016;20.002;2023-02-28T04:46:24;100146.59;;;-2.78;90.36
34921;BME280;21128;50.016;20.002;2023-02-28T04:48:51;100138.03;;;-2.78;90.61
34921;BME280;21128;50.016;20.002;2023-02-28T04:51:18;100138.87;;;-2.78;90.71
34921;BME280;21128;50.016;20.002;2023-02-28T04:53:46;100140.61;;;-2.77;90.79
34921;BME280;21128;50.016;20.002;2023-02-28T04:56:15;100143.18;;;-2.77;90.90
34921;BME280;21128;50.016;20.002;2023-02-28T04:58:43;100137.19;;;-2.77;90.81
34921;BME280;21128;50.016;20.002;2023-02-28T05:01:31;100144.03;;;-2.78;90.83
34921;BME280;21128;50.016;20.002;2023-02-28T05:04:01;100147.51;;;-2.80;90.31
34921;BME280;21128;50.016;20.002;2023-02-28T05:06:29;100148.39;;;-2.81;90.69
34921;BME280;21128;50.016;20.002;2023-02-28T05:08:58;100147.58;;;-2.84;90.79
34921;BME280;21128;50.016;20.002;2023-02-28T05:11:28;100148.42;;;-2.83;90.60
34921;BME280;21128;50.016;20.002;2023-02-28T05:14:05;100143.31;;;-2.85;90.42
34921;BME280;21128;50.016;20.002;2023-02-28T05:16:32;100151.88;;;-2.84;90.90
34921;BME280;21128;50.016;20.002;2023-02-28T05:18:59;100147.61;;;-2.85;90.44
34921;BME280;21128;50.016;20.002;2023-02-28T05:21:35;100149.30;;;-2.84;90.53
34921;BME280;21128;50.016;20.002;2023-02-28T05:24:05;100149.33;;;-2.86;90.59
34921;BME280;21128;50.016;20.002;2023-02-28T05:26:41;100154.48;;;-2.87;90.52
34921;BME280;21128;50.016;20.002;2023-02-28T05:29:09;100156.27;;;-2.91;90.71
34921;BME280;21128;50.016;20.002;2023-02-28T05:31:37;100160.56;;;-2.91;90.80
34921;BME280;21128;50.016;20.002;2023-02-28T05:34:04;100161.38;;;-2.89;91.54
34921;BME280;21128;50.016;20.002;2023-02-28T05:36:31;100169.91;;;-2.86;91.70
34921;BME280;21128;50.016;20.002;2023-02-28T05:38:59;100166.43;;;-2.83;91.12
34921;BME280;21128;50.016;20.002;2023-02-28T05:41:26;100171.55;;;-2.81;91.06
34921;BME280;21128;50.016;20.002;2023-02-28T05:43:53;100180.04;;;-2.78;91.78
34921;BME280;21128;50.016;20.002;2023-02-28T05:46:20;100174.05;;;-2.77;91.79
34921;BME280;21128;50.016;20.002;2023-02-28T05:48:48;100182.62;;;-2.76;91.27
34921;BME280;21128;50.016;20.002;2023-02-28T05:51:16;100185.97;;;-2.73;91.70
34921;BME280;21128;50.016;20.002;2023-02-28T05:53:43;100182.52;;;-2.72;91.92
34921;BME280;21128;50.016;20.002;2023-02-28T05:56:10;100192.75;;;-2.67;91.50
34921;BME280;21128;50.016;20.002;2023-02-28T05:58:37;100188.38;;;-2.64;91.79
34921;BME280;21128;50.016;20.002;2023-02-28T06:03:49;100193.53;;;-2.64;91.56
34921;BME280;21128;50.016;20.002;2023-02-28T06:06:17;100188.45;;;-2.67;91.87
34921;BME280;21128;50.016;20.002;2023-02-28T06:08:44;100190.14;;;-2.66;91.01
34921;BME280;21128;50.016;20.002;2023-02-28T06:11:12;100191.91;;;-2.68;90.92
34921;BME280;21128;50.016;20.002;2023-02-28T06:13:39;100190.17;;;-2.67;90.89
34921;BME280;21128;50.016;20.002;2023-02-28T06:16:07;100199.62;;;-2.69;90.60
34921;BME280;21128;50.016;20.002;2023-02-28T06:18:34;100203.92;;;-2.70;90.36
34921;BME280;21128;50.016;20.002;2023-02-28T06:21:01;100209.06;;;-2.70;91.14
34921;BME280;21128;50.016;20.002;2023-02-28T06:23:29;100208.25;;;-2.72;90.75
34921;BME280;21128;50.016;20.002;2023-02-28T06:25:56;100209.09;;;-2.71;92.18
34921;BME280;21128;50.016;20.002;2023-02-28T06:28:26;100216.78;;;-2.70;91.22
34921;BME280;21128;50.016;20.002;2023-02-28T06:30:52;100223.59;;;-2.66;91.19
34921;BME280;21128;50.016;20.002;2023-02-28T06:33:20;100208.09;;;-2.63;91.35
34921;BME280;21128;50.016;20.002;2023-02-28T06:35:50;100213.20;;;-2.60;91.14
34921;BME280;21128;50.016;20.002;2023-02-28T06:38:18;100223.40;;;-2.55;91.76
34921;BME280;21128;50.016;20.002;2023-02-28T06:40:53;100216.53;;;-2.55;91.72
34921;BME280;21128;50.016;20.002;2023-02-28T06:43:21;100220.80;;;-2.53;91.55
34921;BME280;21128;50.016;20.002;2023-02-28T06:45:48;100221.64;;;-2.51;91.58
34921;BME280;21128;50.016;20.002;2023-02-28T06:48:15;100213.92;;;-2.51;91.23
34921;BME280;21128;50.016;20.002;2023-02-28T06:50:42;100208.80;;;-2.55;91.20
34921;BME280;21128;50.016;20.002;2023-02-28T06:53:09;100220.86;;;-2.57;91.44
34921;BME280;21128;50.016;20.002;2023-02-28T06:55:38;100221.73;;;-2.58;91.60
34921;BME280;21128;50.016;20.002;2023-02-28T06:58:05;100227.70;;;-2.56;92.01
34921;BME280;21128;50.016;20.002;2023-02-28T07:00:42;100220.89;;;-2.58;91.74
34921;BME280;21128;50.016;20.002;2023-02-28T07:03:11;100225.22;;;-2.62;92.39
34921;BME280;21128;50.016;20.002;2023-02-28T07:05:39;100237.24;;;-2.62;92.47
34921;BME280;21128;50.016;20.002;2023-02-28T07:08:06;100240.75;;;-2.66;92.41
34921;BME280;21128;50.016;20.002;2023-02-28T07:10:34;100235.61;;;-2.66;92.97
34921;BME280;21128;50.016;20.002;2023-02-28T07:13:04;100246.69;;;-2.63;93.04
34921;BME280;21128;50.016;20.002;2023-02-28T07:15:31;100243.30;;;-2.65;93.11
34921;BME280;21128;50.016;20.002;2023-02-28T07:17:58;100246.72;;;-2.64;93.21
34921;BME280;21128;50.016;20.002;2023-02-28T07:20:25;100244.09;;;-2.60;93.77
34921;BME280;21128;50.016;20.002;2023-02-28T07:22:52;100242.23;;;-2.51;93.71
34921;BME280;21128;50.016;20.002;2023-02-28T07:25:24;100245.52;;;-2.43;94.11
34921;BME280;21128;50.016;20.002;2023-02-28T07:27:53;100252.20;;;-2.33;94.40
34921;BME280;21128;50.016;20.002;2023-02-28T07:30:20;100249.43;;;-2.22;94.10
34921;BME280;21128;50.016;20.002;2023-02-28T07:32:47;100246.72;;;-2.15;93.82
34921;BME280;21128;50.016;20.002;2023-02-28T07:35:14;100251.63;;;-2.03;94.05
34921;BME280;21128;50.016;20.002;2023-02-28T07:37:45;100253.98;;;-1.90;93.49
34921;BME280;21128;50.016;20.002;2023-02-28T07:40:14;100257.16;;;-1.76;93.45
34921;BME280;21128;50.016;20.002;2023-02-28T07:42:41;100255.97;;;-1.61;92.94
34921;BME280;21128;50.016;20.002;2023-02-28T07:45:09;100255.70;;;-1.48;93.58
34921;BME280;21128;50.016;20.002;2023-02-28T07:47:38;100253.69;;;-1.33;92.92
34921;BME280;21128;50.016;20.002;2023-02-28T07:50:07;100253.41;;;-1.21;92.20
34921;BME280;21128;50.016;20.002;2023-02-28T07:52:36;100242.92;;;-1.14;91.92
34921;BME280;21128;50.016;20.002;2023-02-28T07:55:04;100245.33;;;-1.06;92.30
34921;BME280;21128;50.016;20.002;2023-02-28T07:57:32;100244.36;;;-1.02;90.84
34921;BME280;21128;50.016;20.002;2023-02-28T07:59:59;100252.81;;;-0.95;92.05
34921;BME280;21128;50.016;20.002;2023-02-28T08:02:25;100253.43;;;-0.84;90.81
34921;BME280;21128;50.016;20.002;2023-02-28T08:04:52;100247.08;;;-0.71;90.99
34921;BME280;21128;50.016;20.002;2023-02-28T08:07:19;100244.16;;;-0.57;90.81
34921;BME280;21128;50.016;20.002;2023-02-28T08:09:46;100249.05;;;-0.46;89.89
34921;BME280;21128;50.016;20.002;2023-02-28T08:12:13;100244.59;;;-0.40;89.91
34921;BME280;21128;50.016;20.002;2023-02-28T08:14:41;100245.15;;;-0.29;89.30
34921;BME280;21128;50.016;20.002;2023-02-28T08:17:09;100250.92;;;-0.19;87.96
34921;BME280;21128;50.016;20.002;2023-02-28T08:19:37;100245.49;;;-0.08;88.07
34921;BME280;21128;50.016;20.002;2023-02-28T08:22:05;100252.20;;;-0.03;86.53
34921;BME280;21128;50.016;20.002;2023-02-28T08:24:32;100247.73;;;0.04;86.71
34921;BME280;21128;50.016;20.002;2023-02-28T08:27:00;100252.53;;;0.18;86.00
34921;BME280;21128;50.016;20.002;2023-02-28T08:29:27;100249.01;;;0.20;84.70
34921;BME280;21128;50.016;20.002;2023-02-28T08:31:54;100260.09;;;0.24;83.56
34921;BME280;21128;50.016;20.002;2023-02-28T08:34:21;100247.22;;;0.22;83.37
34921;BME280;21128;50.016;20.002;2023-02-28T08:36:48;100243.58;;;0.30;81.46
34921;BME280;21128;50.016;20.002;2023-02-28T08:39:15;100246.06;;;0.33;81.65
34921;BME280;21128;50.016;20.002;2023-02-28T08:41:42;100244.94;;;0.43;81.44
34921;BME280;21128;50.016;20.002;2023-02-28T08:44:10;100248.16;;;0.79;82.17
34921;BME280;21128;50.016;20.002;2023-02-28T08:46:38;100245.20;;;1.19;81.00
34921;BME280;21128;50.016;20.002;2023-02-28T08:49:06;100239.84;;;1.50;80.28
34921;BME280;21128;50.016;20.002;2023-02-28T08:51:33;100237.86;;;1.83;79.96
34921;BME280;21128;50.016;20.002;2023-02-28T08:54:00;100239.05;;;2.23;78.79
34921;BME280;21128;50.016;20.002;2023-02-28T08:56:28;100250.63;;;2.61;76.75
34921;BME280;21128;50.016;20.002;2023-02-28T08:58:56;100245.09;;;2.92;77.29
34921;BME280;21128;50.016;20.002;2023-02-28T09:01:27;100249.39;;;3.37;77.15
34921;BME280;21128;50.016;20.002;2023-02-28T09:03:56;100240.69;;;3.58;73.12
34921;BME280;21128;50.016;20.002;2023-02-28T09:06:25;100246.80;;;3.57;71.87
34921;BME280;21128;50.016;20.002;2023-02-28T09:08:53;100245.29;;;3.52;70.04
34921;BME280;21128;50.016;20.002;2023-02-28T09:11:20;100242.27;;;3.62;70.25
34921;BME280;21128;50.016;20.002;2023-02-28T09:13:47;100244.66;;;3.67;65.98
34921;BME280;21128;50.016;20.002;2023-02-28T09:16:15;100253.52;;;3.63;66.44
34921;BME280;21128;50.016;20.002;2023-02-28T09:18:43;100243.98;;;3.42;65.22
34921;BME280;21128;50.016;20.002;2023-02-28T09:21:13;100234.03;;;3.31;65.66
34921;BME280;21128;50.016;20.002;2023-02-28T09:23:43;100241.00;;;3.51;67.35
34921;BME280;21128;50.016;20.002;2023-02-28T09:26:28;100233.92;;;3.95;65.96
34921;BME280;21128;50.016;20.002;2023-02-28T09:28:55;100234.51;;;4.02;65.34
34921;BME280;21128;50.016;20.002;2023-02-28T09:31:26;100246.08;;;4.15;63.66
34921;BME280;21128;50.016;20.002;2023-02-28T09:33:56;100241.02;;;3.91;65.50
34921;BME280;21128;50.016;20.002;2023-02-28T09:36:25;100233.66;;;4.01;65.79
34921;BME280;21128;50.016;20.002;2023-02-28T09:38:53;100235.67;;;3.94;62.93
34921;BME280;21128;50.016;20.002;2023-02-28T09:41:22;100235.23;;;3.85;63.42
34921;BME280;21128;50.016;20.002;2023-02-28T09:43:52;100237.83;;;3.85;61.80
34921;BME280;21128;50.016;20.002;2023-02-28T09:46:43;100245.91;;;3.79;62.95
34921;BME280;21128;50.016;20.002;2023-02-28T09:49:19;100243.81;;;4.07;63.22
34921;BME280;21128;50.016;20.002;2023-02-28T09:51:59;100241.75;;;4.53;62.81
34921;BME280;21128;50.016;20.002;2023-02-28T09:54:30;100241.59;;;4.94;62.04
34921;BME280;21128;50.016;20.002;2023-02-28T10:05:34;100240.71;;;4.57;56.51
34921;BME280;21128;50.016;20.002;2023-02-28T10:08:15;100242.81;;;4.68;58.18
34921;BME280;21128;50.016;20.002;2023-02-28T10:10:45;100245.27;;;4.52;55.60
34921;BME280;21128;50.016;20.002;2023-02-28T10:13:44;100241.89;;;4.31;55.31
34921;BME280;21128;50.016;20.002;2023-02-28T10:16:15;100235.69;;;4.34;55.61
34921;BME280;21128;50.016;20.002;2023-02-28T10:18:48;100239.06;;;4.36;56.14
34921;BME280;21128;50.016;20.002;2023-02-28T10:21:30;100237.04;;;4.61;55.24
34921;BME280;21128;50.016;20.002;2023-02-28T10:24:33;100235.92;;;4.67;55.06
34921;BME280;21128;50.016;20.002;2023-02-28T10:29:42;100227.37;;;5.01;54.96
34921;BME280;21128;50.016;20.002;2023-02-28T10:32:13;100223.37;;;5.30;54.56
34921;BME280;21128;50.016;20.002;2023-02-28T10:34:41;100219.23;;;5.43;54.19
34921;BME280;21128;50.016;20.002;2023-02-28T10:37:09;100219.00;;;5.82;53.35
34921;BME280;21128;50.016;20.002;2023-02-28T10:39:44;100215.30;;;6.04;53.18
34921;BME280;21128;50.016;20.002;2023-02-28T10:42:21;100212.38;;;6.10;53.94
34921;BME280;21128;50.016;20.002;2023-02-28T10:44:48;100218.48;;;6.26;51.72
34921;BME280;21128;50.016;20.002;2023-02-28T10:47:17;100209.41;;;6.33;52.44
34921;BME280;21128;50.016;20.002;2023-02-28T10:49:50;100204.46;;;6.60;51.45
34921;BME280;21128;50.016;20.002;2023-02-28T10:52:35;100208.84;;;6.60;51.64
34921;BME280;21128;50.016;20.002;2023-02-28T10:55:24;100211.70;;;6.39;49.99
34921;BME280;21128;50.016;20.002;2023-02-28T10:57:52;100212.16;;;6.30;51.26
34921;BME280;21128;50.016;20.002;2023-02-28T11:00:24;100200.41;;;6.55;51.44
34921;BME280;21128;50.016;20.002;2023-02-28T11:02:51;100198.72;;;6.54;51.59
34921;BME280;21128;50.016;20.002;2023-02-28T11:05:33;100189.96;;;6.70;50.56
34921;BME280;21128;50.016;20.002;2023-02-28T11:08:14;100181.88;;;6.43;50.08
34921;BME280;21128;50.016;20.002;2023-02-28T11:10:59;100187.28;;;6.56;50.09
34921;BME280;21128;50.016;20.002;2023-02-28T11:13:35;100188.19;;;6.71;49.62
34921;BME280;21128;50.016;20.002;2023-02-28T11:16:06;100188.88;;;6.90;50.91
34921;BME280;21128;50.016;20.002;2023-02-28T11:21:06;100182.16;;;7.90;50.18
34921;BME280;21128;50.016;20.002;2023-02-28T11:23:36;100177.26;;;7.70;48.30
34921;BME280;21128;50.016;20.002;2023-02-28T11:26:08;100168.31;;;7.74;49.54
34921;BME280;21128;50.016;20.002;2023-02-28T11:28:41;100164.76;;;8.04;50.44
34921;BME280;21128;50.016;20.002;2023-02-28T11:38:41;100148.87;;;8.77;49.38
34921;BME280;21128;50.016;20.002;2023-02-28T11:44:10;100153.08;;;7.95;46.51
34921;BME280;21128;50.016;20.002;2023-02-28T11:49:30;100144.37;;;7.80;48.20
34921;BME280;21128;50.016;20.002;2023-02-28T11:55:17;100138.00;;;8.27;47.56
34921;BME280;21128;50.016;20.002;2023-02-28T12:06:52;100141.08;;;7.48;47.07
34921;BME280;21128;50.016;20.002;2023-02-28T12:12:23;100143.05;;;7.15;47.26
34921;BME280;21128;50.016;20.002;2023-02-28T12:20:51;100138.98;;;7.39;48.38
34921;BME280;21128;50.016;20.002;2023-02-28T12:32:12;100139.37;;;5.92;47.19
34921;BME280;21128;50.016;20.002;2023-02-28T12:34:48;100142.97;;;5.22;46.57
34921;BME280;21128;50.016;20.002;2023-02-28T12:37:31;100144.95;;;4.64;47.24
34921;BME280;21128;50.016;20.002;2023-02-28T12:40:07;100146.65;;;4.08;48.46
34921;BME280;21128;50.016;20.002;2023-02-28T12:42:44;100150.82;;;3.73;49.05
34921;BME280;21128;50.016;20.002;2023-02-28T12:45:24;100146.75;;;3.47;49.78
34921;BME280;21128;50.016;20.002;2023-02-28T12:47:57;100149.73;;;3.38;50.14
34921;BME280;21128;50.016;20.002;2023-02-28T12:50:25;100147.21;;;3.36;50.70
34921;BME280;21128;50.016;20.002;2023-02-28T12:53:03;100142.58;;;3.23;51.48
34921;BME280;21128;50.016;20.002;2023-02-28T12:55:50;100146.89;;;3.02;51.69
34921;BME280;21128;50.016;20.002;2023-02-28T13:09:58;100138.89;;;2.42;53.53
34921;BME280;21128;50.016;20.002;2023-02-28T13:12:26;100140.34;;;2.49;53.41
34921;BME280;21128;50.016;20.002;2023-02-28T13:17:39;100135.35;;;2.45;53.76
34921;BME280;21128;50.016;20.002;2023-02-28T13:20:35;100133.41;;;2.50;54.01
34921;BME280;21128;50.016;20.002;2023-02-28T13:23:03;100128.66;;;2.61;54.16
34921;BME280;21128;50.016;20.002;2023-02-28T13:25:51;100124.95;;;2.67;54.54
34921;BME280;21128;50.016;20.002;2023-02-28T13:31:15;100113.39;;;2.53;54.23
34921;BME280;21128;50.016;20.002;2023-02-28T13:38:59;100110.31;;;2.44;54.49
34921;BME280;21128;50.016;20.002;2023-02-28T13:44:17;100111.33;;;2.40;55.14
34921;BME280;21128;50.016;20.002;2023-02-28T13:49:33;100112.58;;;2.51;55.70
34921;BME280;21128;50.016;20.002;2023-02-28T13:54:34;100112.28;;;2.59;55.48
34921;BME280;21128;50.016;20.002;2023-02-28T13:57:23;100096.67;;;2.61;55.75
34921;BME280;21128;50.016;20.002;2023-02-28T14:05:18;100090.44;;;2.43;56.17
34921;BME280;21128;50.016;20.002;2023-02-28T14:07:50;100087.20;;;2.38;55.67
34921;BME280;21128;50.016;20.002;2023-02-28T14:15:56;100082.44;;;2.27;56.44
34921;BME280;21128;50.016;20.002;2023-02-28T14:21:49;100076.08;;;2.34;56.61
34921;BME280;21128;50.016;20.002;2023-02-28T14:27:20;100089.73;;;2.39;56.14
34921;BME280;21128;50.016;20.002;2023-02-28T14:37:54;100085.52;;;2.37;56.75
34921;BME280;21128;50.016;20.002;2023-02-28T14:40:31;100071.64;;;2.38;57.27
34921;BME280;21128;50.016;20.002;2023-02-28T14:43:03;100080.36;;;2.35;57.08
34921;BME280;21128;50.016;20.002;2023-02-28T14:45:32;100078.67;;;2.34;56.62
34921;BME280;21128;50.016;20.002;2023-02-28T14:48:01;100080.48;;;2.32;56.92
34921;BME280;21128;50.016;20.002;2023-02-28T14:50:32;100082.24;;;2.32;57.19
34921;BME280;21128;50.016;20.002;2023-02-28T14:53:01;100080.42;;;2.34;57.27
34921;BME280;21128;50.016;20.002;2023-02-28T14:55:31;100083.83;;;2.36;57.48
34921;BME280;21128;50.016;20.002;2023-02-28T14:58:02;100080.56;;;2.31;57.11
34921;BME280;21128;50.016;20.002;2023-02-28T15:00:36;100089.34;;;2.26;57.00
34921;BME280;21128;50.016;20.002;2023-02-28T15:03:37;100083.58;;;2.20;57.36
34921;BME280;21128;50.016;20.002;2023-02-28T15:06:12;100085.48;;;2.15;57.71
34921;BME280;21128;50.016;20.002;2023-02-28T15:08:40;100087.17;;;2.16;57.57
34921;BME280;21128;50.016;20.002;2023-02-28T15:11:17;100087.17;;;2.16;57.65
34921;BME280;21128;50.016;20.002;2023-02-28T15:13:51;100086.45;;;2.12;57.60
34921;BME280;21128;50.016;20.002;2023-02-28T15:16:22;100081.44;;;2.08;57.67
34921;BME280;21128;50.016;20.002;2023-02-28T15:18:55;100084.25;;;2.02;57.88
34921;BME280;21128;50.016;20.002;2023-02-28T15:21:35;100082.69;;;1.97;58.46
34921;BME280;21128;50.016;20.002;2023-02-28T15:24:17;100076.82;;;1.92;58.42
34921;BME280;21128;50.016;20.002;2023-02-28T15:26:55;100075.27;;;1.88;58.58
34921;BME280;21128;50.016;20.002;2023-02-28T15:29:25;100078.85;;;1.84;58.74
34921;BME280;21128;50.016;20.002;2023-02-28T15:32:06;100080.57;;;1.85;59.21
34921;BME280;21128;50.016;20.002;2023-02-28T15:34:37;100078.98;;;1.81;58.80